createdAt,value
2023-03-05T00:00:02.817Z,67.10
2023-03-05T00:02:34.950Z,67.10
2023-03-05T00:05:07.763Z,67.20
2023-03-05T00:07:42.437Z,67.20
2023-03-05T00:10:14.479Z,67.30
2023-03-05T00:12:46.547Z,67.20
2023-03-05T00:15:18.915Z,67.30
2023-03-05T00:17:50.920Z,67.30
2023-03-05T00:20:23.029Z,67.30
2023-03-05T00:22:57.700Z,67.30
2023-03-05T00:25:29.679Z,67.10
2023-03-05T00:28:01.665Z,67.20
2023-03-05T00:30:34.347Z,67.10
2023-03-05T00:33:06.571Z,67.20
2023-03-05T00:35:42.194Z,67.30
2023-03-05T00:38:16.847Z,67.30
2023-03-05T00:40:51.350Z,67.40
2023-03-05T00:43:23.464Z,67.40
2023-03-05T00:45:55.729Z,67.30
2023-03-05T00:48:27.762Z,67.30
2023-03-05T00:50:59.873Z,67.20
2023-03-05T00:53:34.600Z,67.20
2023-03-05T00:56:07.468Z,67.10
2023-03-05T00:58:39.919Z,67.20
2023-03-05T01:01:11.932Z,67.10
2023-03-05T01:03:43.953Z,67.10
2023-03-05T01:06:17.200Z,67.00
2023-03-05T01:08:51.786Z,66.90
2023-03-05T01:11:23.765Z,66.90
2023-03-05T01:13:56.080Z,66.90
2023-03-05T01:16:28.195Z,66.90
2023-03-05T01:19:00.198Z,67.00
2023-03-05T01:21:32.229Z,66.90
2023-03-05T01:24:07.364Z,66.90
2023-03-05T01:26:39.645Z,66.80
2023-03-05T01:29:11.916Z,66.80
2023-03-05T01:31:44.182Z,66.90
2023-03-05T01:34:18.088Z,66.60
2023-03-05T01:36:50.584Z,66.20
2023-03-05T01:39:25.119Z,66.10
2023-03-05T01:41:57.096Z,66.20
2023-03-05T01:44:30.517Z,66.50
2023-03-05T01:47:02.354Z,66.90
2023-03-05T01:49:35.332Z,67.20
2023-03-05T01:52:09.325Z,67.50
2023-03-05T01:54:45.150Z,67.90
2023-03-05T01:57:22.219Z,68.40
2023-03-05T01:59:56.487Z,69.20
2023-03-05T02:02:28.276Z,69.20
2023-03-05T02:05:02.533Z,70.00
2023-03-05T02:07:37.383Z,68.80
2023-03-05T02:10:20.539Z,68.30
2023-03-05T02:12:54.499Z,68.40
2023-03-05T02:15:26.766Z,67.00
2023-03-05T02:17:59.085Z,66.50
2023-03-05T02:20:43.052Z,66.10
2023-03-05T02:23:20.298Z,66.20
2023-03-05T02:25:52.853Z,66.00
2023-03-05T02:28:30.421Z,66.10
2023-03-05T02:31:02.439Z,66.20
2023-03-05T02:33:34.466Z,66.20
2023-03-05T02:36:07.932Z,66.30
2023-03-05T02:38:43.340Z,66.20
2023-03-05T02:41:15.978Z,66.30
2023-03-05T02:43:48.004Z,66.30
2023-03-05T02:46:20.164Z,66.30
2023-03-05T02:48:52.230Z,66.20
2023-03-05T02:51:24.229Z,66.30
2023-03-05T02:53:58.810Z,66.30
2023-03-05T02:56:30.832Z,66.40
2023-03-05T02:59:02.888Z,66.40
2023-03-05T03:01:34.955Z,66.50
2023-03-05T03:04:07.087Z,66.60
2023-03-05T03:06:39.110Z,66.60
2023-03-05T03:09:13.676Z,66.70
2023-03-05T03:11:45.642Z,66.80
2023-03-05T03:14:17.752Z,66.90
2023-03-05T03:16:50.522Z,67.00
2023-03-05T03:19:22.555Z,67.20
2023-03-05T03:21:55.193Z,67.30
2023-03-05T03:24:30.388Z,67.50
2023-03-05T03:27:02.594Z,67.70
2023-03-05T03:29:35.070Z,67.90
2023-03-05T03:32:08.654Z,68.20
2023-03-05T03:34:40.741Z,68.30
2023-03-05T03:37:13.788Z,68.50
2023-03-05T03:39:48.464Z,68.60
2023-03-05T03:42:21.747Z,68.90
2023-03-05T03:44:53.772Z,69.00
2023-03-05T03:47:25.923Z,69.20
2023-03-05T03:49:59.086Z,69.50
2023-03-05T03:52:31.167Z,69.60
2023-03-05T03:55:06.626Z,69.80
2023-03-05T03:57:38.614Z,69.90
2023-03-05T04:00:11.973Z,69.90
2023-03-05T04:02:44.847Z,70.10
2023-03-05T04:05:17.296Z,70.20
2023-03-05T04:07:49.383Z,70.30
2023-03-05T04:10:23.994Z,70.40
2023-03-05T04:12:55.990Z,70.50
2023-03-05T04:15:27.956Z,70.60
2023-03-05T04:18:00.316Z,70.90
2023-03-05T04:20:32.357Z,71.30
2023-03-05T04:23:04.361Z,71.50
2023-03-05T04:25:38.893Z,71.90
2023-03-05T04:28:11.191Z,72.10
2023-03-05T04:30:43.262Z,72.20
2023-03-05T04:33:15.483Z,72.40
2023-03-05T04:35:47.642Z,72.80
2023-03-05T04:38:19.666Z,73.50
2023-03-05T04:40:54.283Z,72.60
2023-03-05T04:43:26.558Z,72.50
2023-03-05T04:45:58.544Z,72.80
2023-03-05T04:48:30.579Z,72.90
2023-03-05T04:51:02.589Z,73.10
2023-03-05T04:53:35.345Z,73.20
2023-03-05T04:56:10.199Z,73.50
2023-03-05T04:58:42.168Z,74.20
2023-03-05T05:01:14.191Z,74.40
2023-03-05T05:03:46.252Z,75.40
2023-03-05T05:06:18.207Z,78.00
2023-03-05T05:08:50.220Z,71.00
2023-03-05T05:11:24.816Z,72.00
2023-03-05T05:13:56.842Z,73.20
2023-03-05T05:16:28.850Z,75.80
2023-03-05T05:19:00.945Z,79.40
2023-03-05T05:21:32.954Z,80.50
2023-03-05T05:24:05.871Z,83.50
2023-03-05T05:26:40.425Z,80.60
2023-03-05T05:29:12.413Z,80.20
2023-03-05T05:31:45.011Z,79.60
2023-03-05T05:34:17.184Z,79.40
2023-03-05T05:36:49.154Z,81.90
2023-03-05T05:39:21.168Z,82.60
2023-03-05T05:41:55.912Z,81.20
2023-03-05T05:44:27.966Z,80.30
2023-03-05T05:46:59.948Z,80.20
2023-03-05T05:49:32.035Z,83.30
2023-03-05T05:52:04.573Z,77.10
2023-03-05T05:54:36.580Z,77.70
2023-03-05T05:57:11.124Z,78.00
2023-03-05T05:59:43.213Z,78.00
2023-03-05T06:02:15.256Z,78.10
2023-03-05T06:04:47.306Z,78.40
2023-03-05T06:07:19.301Z,78.50
2023-03-05T06:09:51.328Z,78.40
2023-03-05T06:12:26.049Z,78.50
2023-03-05T06:14:58.250Z,78.70
2023-03-05T06:17:31.150Z,78.70
2023-03-05T06:20:04.438Z,78.90
2023-03-05T06:22:37.630Z,78.80
2023-03-05T06:25:11.957Z,78.80
2023-03-05T06:27:46.740Z,78.90
2023-03-05T06:30:19.101Z,79.00
2023-03-05T06:32:51.124Z,78.90
2023-03-05T06:35:23.177Z,79.00
2023-03-05T06:37:55.171Z,79.00
2023-03-05T06:40:26.991Z,79.10
2023-03-05T06:43:01.646Z,79.10
2023-03-05T06:45:33.843Z,79.30
2023-03-05T06:48:06.396Z,79.30
2023-03-05T06:50:38.604Z,79.60
2023-03-05T06:53:10.609Z,79.50
2023-03-05T06:55:42.567Z,79.60
2023-03-05T06:58:16.959Z,79.70
2023-03-05T07:00:48.992Z,79.70
2023-03-05T07:03:20.992Z,79.80
2023-03-05T07:05:52.986Z,79.80
2023-03-05T07:08:25.016Z,79.80
2023-03-05T07:10:57.238Z,79.80
2023-03-05T07:13:31.867Z,79.80
2023-03-05T07:16:06.392Z,79.80
2023-03-05T07:18:38.375Z,79.90
2023-03-05T07:21:15.021Z,79.70
2023-03-05T07:23:47.041Z,79.60
2023-03-05T07:26:19.265Z,79.60
2023-03-05T07:28:54.724Z,79.60
2023-03-05T07:31:30.972Z,79.60
2023-03-05T07:34:04.007Z,79.50
2023-03-05T07:36:38.197Z,79.40
2023-03-05T07:39:11.730Z,79.40
2023-03-05T07:41:43.721Z,79.40
2023-03-05T07:44:18.781Z,79.40
2023-03-05T07:46:50.790Z,79.40
2023-03-05T07:49:23.820Z,79.40
2023-03-05T07:51:55.836Z,79.40
2023-03-05T07:54:27.890Z,79.40
2023-03-05T07:56:59.909Z,79.50
2023-03-05T07:59:35.338Z,79.60
2023-03-05T08:02:08.081Z,79.50
2023-03-05T08:04:40.251Z,79.50
2023-03-05T08:07:14.980Z,79.60
2023-03-05T08:09:46.994Z,79.70
2023-03-05T08:12:18.964Z,79.70
2023-03-05T08:14:53.604Z,79.80
2023-03-05T08:17:25.866Z,79.90
2023-03-05T08:20:00.233Z,79.80
2023-03-05T08:22:33.922Z,79.80
2023-03-05T08:25:07.661Z,79.80
2023-03-05T08:27:40.602Z,79.70
2023-03-05T08:30:17.810Z,79.70
2023-03-05T08:32:50.372Z,79.50
2023-03-05T08:35:22.720Z,79.50
2023-03-05T08:37:54.834Z,79.40
2023-03-05T08:40:26.778Z,79.30
2023-03-05T08:42:59.882Z,79.20
2023-03-05T08:45:34.619Z,79.20
2023-03-05T08:48:07.251Z,79.20
2023-03-05T08:50:39.585Z,79.50
2023-03-05T08:53:11.664Z,79.70
2023-03-05T08:55:44.291Z,79.70
2023-03-05T08:58:16.362Z,79.70
2023-03-05T09:00:51.131Z,79.80
2023-03-05T09:03:23.387Z,79.90
2023-03-05T09:06:00.010Z,80.00
2023-03-05T09:08:32.038Z,80.10
2023-03-05T09:11:06.084Z,80.10
2023-03-05T09:13:38.103Z,80.10
2023-03-05T09:16:15.257Z,80.20
2023-03-05T09:18:47.425Z,80.30
2023-03-05T09:21:19.458Z,80.20
2023-03-05T09:23:51.546Z,80.10
2023-03-05T09:26:23.579Z,80.10
2023-03-05T09:28:55.772Z,80.10
2023-03-05T09:31:30.498Z,80.10
2023-03-05T09:34:02.468Z,80.10
2023-03-05T09:36:34.266Z,80.10
2023-03-05T09:39:07.113Z,80.00
2023-03-05T09:42:03.208Z,80.00
2023-03-05T09:44:44.785Z,80.10
2023-03-05T09:47:44.513Z,80.00
2023-03-05T09:50:32.538Z,80.10
2023-03-05T09:53:12.493Z,80.00
2023-03-05T09:55:46.647Z,80.00
2023-03-05T09:58:22.932Z,80.10
2023-03-05T10:01:01.853Z,80.10
2023-03-05T10:03:51.819Z,80.20
2023-03-05T10:06:26.335Z,80.20
2023-03-05T10:09:03.035Z,80.10
2023-03-05T10:11:44.969Z,80.10
2023-03-05T10:14:24.150Z,80.10
2023-03-05T10:17:26.324Z,80.10
2023-03-05T10:20:21.418Z,80.20
2023-03-05T10:23:18.747Z,80.10
2023-03-05T10:26:04.047Z,80.10
2023-03-05T10:28:43.503Z,80.00
2023-03-05T10:31:35.182Z,79.90
2023-03-05T10:34:33.815Z,79.90
2023-03-05T10:37:35.806Z,79.80
2023-03-05T10:40:16.180Z,79.80
2023-03-05T10:42:54.080Z,79.70
2023-03-05T10:45:30.960Z,79.70
2023-03-05T10:48:07.527Z,79.70
2023-03-05T10:50:43.078Z,79.60
2023-03-05T10:53:25.744Z,79.60
2023-03-05T10:56:01.332Z,79.30
2023-03-05T10:58:33.923Z,79.30
2023-03-05T11:01:22.024Z,79.10
2023-03-05T11:03:56.663Z,78.90
2023-03-05T11:06:32.630Z,78.80
2023-03-05T11:09:24.660Z,78.70
2023-03-05T11:12:10.205Z,78.50
2023-03-05T11:14:45.148Z,78.30
2023-03-05T11:17:28.465Z,78.30
2023-03-05T11:20:29.214Z,78.20
2023-03-05T11:23:10.772Z,78.00
2023-03-05T11:26:02.743Z,77.90
2023-03-05T11:28:37.204Z,77.80
2023-03-05T11:31:23.614Z,77.80
2023-03-05T11:33:59.436Z,77.80
2023-03-05T11:36:33.672Z,77.60
2023-03-05T11:39:16.778Z,77.50
2023-03-05T11:41:53.726Z,77.50
2023-03-05T11:44:29.748Z,77.50
2023-03-05T11:47:05.244Z,77.50
2023-03-05T11:49:41.867Z,77.50
2023-03-05T11:52:21.096Z,77.50
2023-03-05T11:55:00.826Z,77.50
2023-03-05T11:57:43.505Z,77.50
2023-03-05T12:00:19.101Z,77.40
2023-03-05T12:02:54.512Z,77.40
2023-03-05T12:05:28.574Z,77.30
2023-03-05T12:08:02.296Z,77.40
2023-03-05T12:10:34.395Z,77.20
2023-03-05T12:13:15.383Z,77.00
2023-03-05T12:16:06.067Z,77.00
2023-03-05T12:18:41.385Z,76.80
2023-03-05T12:21:22.392Z,76.80
2023-03-05T12:23:59.134Z,76.60
2023-03-05T12:26:57.147Z,76.50
2023-03-05T12:29:41.333Z,76.40
2023-03-05T12:32:43.924Z,76.30
2023-03-05T12:35:23.981Z,76.30
2023-03-05T12:38:29.325Z,76.20
2023-03-05T12:41:43.075Z,76.20
2023-03-05T12:44:20.777Z,76.00
2023-03-05T12:47:23.512Z,76.10
2023-03-05T12:49:57.409Z,76.00
2023-03-05T12:52:31.821Z,76.00
2023-03-05T12:55:17.757Z,76.00
2023-03-05T12:57:56.661Z,76.00
2023-03-05T13:00:33.990Z,76.00
2023-03-05T13:03:12.650Z,76.00
2023-03-05T13:05:51.158Z,76.00
2023-03-05T13:08:25.940Z,76.00
2023-03-05T13:11:01.357Z,76.00
2023-03-05T13:13:36.353Z,76.00
2023-03-05T13:16:17.798Z,76.10
2023-03-05T13:18:54.007Z,76.20
2023-03-05T13:21:29.124Z,76.20
2023-03-05T13:24:03.142Z,76.20
2023-03-05T13:26:38.281Z,76.20
2023-03-05T13:29:13.535Z,76.30
2023-03-05T13:31:48.164Z,76.30
2023-03-05T13:34:25.388Z,76.40
2023-03-05T13:37:00.968Z,76.40
2023-03-05T13:39:35.314Z,76.50
2023-03-05T13:42:15.851Z,76.50
2023-03-05T13:44:55.075Z,76.50
2023-03-05T13:47:29.763Z,76.40
2023-03-05T13:50:07.443Z,76.40
2023-03-05T13:52:39.584Z,76.40
2023-03-05T13:55:14.936Z,76.30
2023-03-05T13:57:51.024Z,76.00
2023-03-05T14:00:29.959Z,75.80
2023-03-05T14:03:10.221Z,75.60
2023-03-05T14:05:46.230Z,75.50
2023-03-05T14:08:22.029Z,75.40
2023-03-05T14:10:55.721Z,75.30
2023-03-05T14:13:28.187Z,75.20
2023-03-05T14:16:05.039Z,75.20
2023-03-05T14:18:37.795Z,75.10
2023-03-05T14:21:12.815Z,75.00
2023-03-05T14:23:46.105Z,74.80
2023-03-05T14:26:22.632Z,74.80
2023-03-05T14:28:57.312Z,74.70
2023-03-05T14:31:31.886Z,74.40
2023-03-05T14:34:06.074Z,74.40
2023-03-05T14:36:46.924Z,74.30
2023-03-05T14:39:31.609Z,74.20
2023-03-05T14:42:25.969Z,74.10
2023-03-05T14:45:00.413Z,74.00
2023-03-05T14:47:32.579Z,73.90
2023-03-05T14:50:05.735Z,73.90
2023-03-05T14:52:40.946Z,74.00
2023-03-05T14:55:17.287Z,74.00
2023-03-05T14:57:51.585Z,73.90
2023-03-05T15:00:25.681Z,73.90
2023-03-05T15:02:58.387Z,73.90
2023-03-05T15:05:30.813Z,73.90
2023-03-05T15:08:06.233Z,73.90
2023-03-05T15:10:38.222Z,73.90
2023-03-05T15:13:12.019Z,73.80
2023-03-05T15:15:45.471Z,73.70
2023-03-05T15:18:20.421Z,73.60
2023-03-05T15:20:53.073Z,73.50
2023-03-05T15:23:29.788Z,73.50
2023-03-05T15:26:05.542Z,73.40
2023-03-05T15:28:39.413Z,73.30
2023-03-05T15:31:11.597Z,73.30
2023-03-05T15:33:43.684Z,73.10
2023-03-05T15:36:15.949Z,73.20
2023-03-05T15:38:50.640Z,73.00
2023-03-05T15:41:22.919Z,73.00
2023-03-05T15:43:54.934Z,73.00
2023-03-05T15:46:27.202Z,73.10
2023-03-05T15:48:59.249Z,73.60
2023-03-05T15:51:31.248Z,73.20
2023-03-05T15:54:06.031Z,73.20
2023-03-05T15:56:38.153Z,73.20
2023-03-05T15:59:10.311Z,73.30
2023-03-05T16:01:47.799Z,73.20
2023-03-05T16:04:19.915Z,73.30
2023-03-05T16:06:52.576Z,73.30
2023-03-05T16:09:30.715Z,73.20
2023-03-05T16:12:02.830Z,73.30
2023-03-05T16:14:34.977Z,73.20
2023-03-05T16:17:08.004Z,73.20
2023-03-05T16:19:43.432Z,73.30
2023-03-05T16:22:15.482Z,73.20
2023-03-05T16:24:50.104Z,73.20
2023-03-05T16:27:22.426Z,73.10
2023-03-05T16:29:54.451Z,73.10
2023-03-05T16:32:26.509Z,73.10
2023-03-05T16:34:58.713Z,73.10
2023-03-05T16:37:30.750Z,73.10
2023-03-05T16:40:16.185Z,73.20
2023-03-05T16:42:48.940Z,73.10
2023-03-05T16:45:20.955Z,73.10
2023-03-05T16:47:53.081Z,73.00
2023-03-05T16:50:25.318Z,73.00
2023-03-05T16:52:57.407Z,73.00
2023-03-05T16:55:31.964Z,73.10
2023-03-05T16:58:04.259Z,73.00
2023-03-05T17:00:36.401Z,72.90
2023-03-05T17:03:08.571Z,72.90
2023-03-05T17:05:40.742Z,72.90
2023-03-05T17:08:12.770Z,72.90
2023-03-05T17:13:37.606Z,72.90
2023-03-05T17:16:11.190Z,72.80
2023-03-05T17:18:43.196Z,72.90
2023-03-05T17:21:15.801Z,72.90
2023-03-05T17:23:48.054Z,73.00
2023-03-05T17:26:22.764Z,73.00
2023-03-05T17:28:54.849Z,73.00
2023-03-05T17:31:27.047Z,73.10
2023-03-05T17:33:59.109Z,73.20
2023-03-05T17:36:32.246Z,73.30
2023-03-05T17:39:04.642Z,74.30
2023-03-05T17:41:39.213Z,75.80
2023-03-05T17:44:11.222Z,76.70
2023-03-05T17:46:43.330Z,77.10
2023-03-05T17:49:15.359Z,77.10
2023-03-05T17:51:47.201Z,76.90
2023-03-05T17:54:18.950Z,76.60
2023-03-05T17:56:56.538Z,76.30
2023-03-05T17:59:28.320Z,76.00
2023-03-05T18:02:00.656Z,76.30
2023-03-05T18:04:38.096Z,76.30
2023-03-05T18:07:10.189Z,76.40
2023-03-05T18:09:42.158Z,76.10
2023-03-05T18:12:16.787Z,75.70
2023-03-05T18:14:48.924Z,75.60
2023-03-05T18:17:22.788Z,75.30
2023-03-05T18:19:55.966Z,75.30
2023-03-05T18:22:27.984Z,76.20
2023-03-05T18:24:59.964Z,76.50
2023-03-05T18:27:35.239Z,76.60
2023-03-05T18:30:08.952Z,76.50
2023-03-05T18:32:43.339Z,76.50
2023-03-05T18:35:16.234Z,76.40
2023-03-05T18:37:48.230Z,76.30
2023-03-05T18:40:22.257Z,76.10
2023-03-05T18:43:00.042Z,76.00
2023-03-05T18:45:34.092Z,75.80
2023-03-05T18:48:06.522Z,75.80
2023-03-05T18:50:38.618Z,75.60
2023-03-05T18:53:12.777Z,75.60
2023-03-05T18:55:47.665Z,75.40
2023-03-05T18:58:23.156Z,75.40
2023-03-05T19:00:56.482Z,75.20
2023-03-05T19:03:28.488Z,75.10
2023-03-05T19:06:00.479Z,75.10
2023-03-05T19:08:32.550Z,75.00
2023-03-05T19:11:14.552Z,75.00
2023-03-05T19:13:50.441Z,74.80
2023-03-05T19:16:24.696Z,74.60
2023-03-05T19:19:13.342Z,74.50
2023-03-05T19:21:47.269Z,74.30
2023-03-05T19:24:19.874Z,74.30
2023-03-05T19:26:56.130Z,74.20
2023-03-05T19:29:32.968Z,74.20
2023-03-05T19:32:06.576Z,74.00
2023-03-05T19:34:38.916Z,74.10
2023-03-05T19:37:11.376Z,74.20
2023-03-05T19:39:43.349Z,73.90
2023-03-05T19:42:15.555Z,73.90
2023-03-05T19:44:50.149Z,73.80
2023-03-05T19:47:22.233Z,73.80
2023-03-05T19:49:54.267Z,73.50
2023-03-05T19:52:26.797Z,73.40
2023-03-05T19:54:59.500Z,73.10
2023-03-05T19:57:32.037Z,73.00
2023-03-05T20:00:08.283Z,73.00
2023-03-05T20:02:40.311Z,72.90
2023-03-05T20:05:12.615Z,72.90
2023-03-05T20:07:44.623Z,72.80
2023-03-05T20:10:16.884Z,72.70
2023-03-05T20:12:50.543Z,72.60
2023-03-05T20:15:29.257Z,72.50
2023-03-05T20:18:01.313Z,72.30
2023-03-05T20:20:33.616Z,72.30
2023-03-05T20:23:08.692Z,72.20
2023-03-05T20:25:40.757Z,72.20
2023-03-05T20:28:12.854Z,72.20
2023-03-05T20:30:53.566Z,72.10
2023-03-05T20:33:26.794Z,72.00
2023-03-05T20:36:01.294Z,71.90
2023-03-05T20:38:33.515Z,72.00
2023-03-05T20:41:10.897Z,71.00
2023-03-05T20:43:45.036Z,70.80
2023-03-05T20:46:21.375Z,70.80
2023-03-05T20:48:55.229Z,70.90
2023-03-05T20:51:29.538Z,70.90
2023-03-05T20:54:04.097Z,71.20
2023-03-05T20:56:35.956Z,71.50
2023-03-05T20:59:08.905Z,71.70
2023-03-05T21:01:43.449Z,71.90
2023-03-05T21:04:16.466Z,72.10
2023-03-05T21:06:51.795Z,72.30
2023-03-05T21:09:29.092Z,72.60
2023-03-05T21:12:01.482Z,73.10
2023-03-05T21:14:37.652Z,73.00
2023-03-05T21:17:12.290Z,73.10
2023-03-05T21:19:44.288Z,73.40
2023-03-05T21:22:16.370Z,74.00
2023-03-05T21:25:10.793Z,74.80
2023-03-05T21:27:42.688Z,75.60
2023-03-05T21:30:14.646Z,76.40
2023-03-05T21:32:49.985Z,76.80
2023-03-05T21:35:22.440Z,76.40
2023-03-05T21:38:11.037Z,76.40
2023-03-05T21:40:45.657Z,76.40
2023-03-05T21:43:20.098Z,77.10
2023-03-05T21:45:54.141Z,78.90
2023-03-05T21:48:29.291Z,80.50
2023-03-05T21:51:05.841Z,81.40
2023-03-05T21:53:37.781Z,81.50
2023-03-05T21:56:23.525Z,81.40
2023-03-05T21:58:55.361Z,81.20
2023-03-05T22:01:27.588Z,80.80
2023-03-05T22:04:02.327Z,80.10
2023-03-05T22:06:34.251Z,79.70
2023-03-05T22:09:06.053Z,79.10
2023-03-05T22:11:40.251Z,78.60
2023-03-05T22:14:12.160Z,78.10
2023-03-05T22:16:44.106Z,77.70
2023-03-05T22:19:18.795Z,77.20
2023-03-05T22:21:50.791Z,76.80
2023-03-05T22:24:25.086Z,75.90
2023-03-05T22:26:57.103Z,75.30
2023-03-05T22:29:29.132Z,74.90
2023-03-05T22:32:01.229Z,74.80
2023-03-05T22:34:37.593Z,74.90
2023-03-05T22:37:12.772Z,75.00
2023-03-05T22:39:44.755Z,75.10
2023-03-05T22:42:16.722Z,75.30
2023-03-05T22:44:48.951Z,75.20
2023-03-05T22:47:21.092Z,75.30
2023-03-05T22:49:55.642Z,75.40
2023-03-05T22:52:27.406Z,75.60
2023-03-05T22:55:01.340Z,75.60
2023-03-05T22:57:33.293Z,75.70
2023-03-05T23:00:06.120Z,75.70
2023-03-05T23:02:38.157Z,75.70
2023-03-05T23:05:13.393Z,75.80
2023-03-05T23:07:45.537Z,76.00
2023-03-05T23:10:18.492Z,76.10
2023-03-05T23:12:52.132Z,76.40
2023-03-05T23:15:25.971Z,77.10
2023-03-05T23:17:58.043Z,77.20
2023-03-05T23:20:36.771Z,77.30
2023-03-05T23:23:08.898Z,77.70
2023-03-05T23:25:41.234Z,77.80
2023-03-05T23:28:13.196Z,78.40
2023-03-05T23:30:45.595Z,79.20
2023-03-05T23:33:19.989Z,79.60
2023-03-05T23:35:56.606Z,80.20
2023-03-05T23:38:30.142Z,80.80
2023-03-05T23:41:03.686Z,81.30
2023-03-05T23:43:35.760Z,81.70
2023-03-05T23:46:11.306Z,81.90
2023-03-05T23:48:43.304Z,81.70
2023-03-05T23:51:18.196Z,81.70
2023-03-05T23:53:50.164Z,81.50
2023-03-05T23:56:22.144Z,81.60
2023-03-05T23:58:56.303Z,81.40
